Marlborough, Massachusetts
Current Conditions -  °F | °C
As of 5:56 AM on Wednesday 22 Oct 2014 (Local Time) from KBED Reporting Station
Light Rain Light Rain  
Wind Chill: 50°   Ceiling: 500
Heat Index: 50°   Visibility: 6mi
Dew Point: 49°   Wind: 8mph
Humidity: 96%   Direction: 360°N
Pressure: 29.99"   Gusts: NA
Location:  42.35°N, 71.55°W
Report Text: KBED 220956Z AUTO 36007KT 6SM -RA BR OVC005 10/09 A2999 RMK AO2 RAB17 SLP170 P0001 T01000094 TSNO
Loading
Personal Weather Stations






























Interactive Weather Map
Tropical Storm Tracking
New forecast layout! Learn more

10-Day Weather Forecast

Advertisements
Track Severe Weather on mobile